createdAt,value
2019-02-28T00:00:52.265Z,9.60
2019-02-28T00:02:56.801Z,9.40
2019-02-28T00:05:06.772Z,9.30
2019-02-28T00:07:17.651Z,9.20
2019-02-28T00:09:20.156Z,9.20
2019-02-28T00:11:26.004Z,9.00
2019-02-28T00:13:31.962Z,9.00
2019-02-28T00:15:37.675Z,9.00
2019-02-28T00:17:43.680Z,8.90
2019-02-28T00:19:51.361Z,8.80
2019-02-28T00:21:56.941Z,8.80
2019-02-28T00:24:02.092Z,8.70
2019-02-28T00:26:11.216Z,8.70
2019-02-28T00:28:13.981Z,8.60
2019-02-28T00:30:19.035Z,8.50
2019-02-28T00:32:24.768Z,8.50
2019-02-28T00:34:30.966Z,8.50
2019-02-28T00:36:35.579Z,8.30
2019-02-28T00:38:40.739Z,8.30
2019-02-28T00:40:47.620Z,8.20
2019-02-28T00:42:52.792Z,8.20
2019-02-28T00:44:58.181Z,8.20
2019-02-28T00:47:05.619Z,8.20
2019-02-28T00:49:11.870Z,8.10
2019-02-28T00:51:16.995Z,8.10
2019-02-28T00:53:22.065Z,8.10
2019-02-28T00:55:27.491Z,8.10
2019-02-28T00:57:32.365Z,8.00
2019-02-28T00:59:37.225Z,8.00
2019-02-28T01:01:43.137Z,7.90
2019-02-28T01:03:48.148Z,7.90
2019-02-28T01:05:53.218Z,7.90
2019-02-28T01:07:58.237Z,7.90
2019-02-28T01:10:04.537Z,7.80
2019-02-28T01:12:10.212Z,7.80
2019-02-28T01:14:15.350Z,7.70
2019-02-28T01:16:20.951Z,7.70
2019-02-28T01:18:25.925Z,7.70
2019-02-28T01:20:30.763Z,7.70
2019-02-28T01:22:35.930Z,7.70
2019-02-28T01:24:40.614Z,7.70
2019-02-28T01:26:46.731Z,7.60
2019-02-28T01:28:52.899Z,7.60
2019-02-28T01:30:57.815Z,7.60
2019-02-28T01:33:02.755Z,7.50
2019-02-28T01:35:08.381Z,7.50
2019-02-28T01:37:13.210Z,7.50
2019-02-28T01:39:17.969Z,7.40
2019-02-28T01:41:22.515Z,7.40
2019-02-28T01:43:28.782Z,7.40
2019-02-28T01:45:34.710Z,7.40
2019-02-28T01:47:39.446Z,7.40
2019-02-28T01:49:44.070Z,7.30
2019-02-28T01:51:49.178Z,7.30
2019-02-28T01:53:54.511Z,7.30
2019-02-28T01:56:02.498Z,7.30
2019-02-28T01:58:06.183Z,7.30
2019-02-28T02:00:12.601Z,7.30
2019-02-28T02:02:17.625Z,7.30
2019-02-28T02:04:22.319Z,7.30
2019-02-28T02:06:27.319Z,7.20
2019-02-28T02:08:33.187Z,7.20
2019-02-28T02:10:39.778Z,7.20
2019-02-28T02:12:45.434Z,7.20
2019-02-28T02:14:52.667Z,7.20
2019-02-28T02:16:58.309Z,7.20
2019-02-28T02:19:04.349Z,7.20
2019-02-28T02:21:11.058Z,7.20
2019-02-28T02:23:18.072Z,7.20
2019-02-28T02:25:22.585Z,7.20
2019-02-28T02:27:27.254Z,7.20
2019-02-28T02:29:36.239Z,7.20
2019-02-28T02:31:38.736Z,7.20
2019-02-28T02:33:50.947Z,7.20
2019-02-28T02:35:51.048Z,7.10
2019-02-28T02:37:56.115Z,7.10
2019-02-28T02:40:03.732Z,7.10
2019-02-28T02:42:11.421Z,7.10
2019-02-28T02:44:18.025Z,7.10
2019-02-28T02:46:23.256Z,7.00
2019-02-28T02:48:28.459Z,7.00
2019-02-28T02:50:35.793Z,7.00
2019-02-28T02:52:40.400Z,7.00
2019-02-28T02:54:45.577Z,6.90
2019-02-28T02:56:51.946Z,6.90
2019-02-28T02:59:01.134Z,6.90
2019-02-28T03:01:02.838Z,6.90
2019-02-28T03:03:07.969Z,6.90
2019-02-28T03:05:13.206Z,6.80
2019-02-28T03:07:23.235Z,6.80
2019-02-28T03:09:24.470Z,6.80
2019-02-28T03:11:31.967Z,6.80
2019-02-28T03:13:42.129Z,6.80
2019-02-28T03:15:43.602Z,6.70
2019-02-28T03:17:49.502Z,6.70
2019-02-28T03:19:54.532Z,6.70
2019-02-28T03:22:00.387Z,6.70
2019-02-28T03:24:05.701Z,6.70
2019-02-28T03:26:10.423Z,6.70
2019-02-28T03:28:15.484Z,6.70
2019-02-28T03:30:26.918Z,6.70
2019-02-28T03:32:39.815Z,6.70
2019-02-28T03:34:34.293Z,6.60
2019-02-28T03:36:39.314Z,6.60
2019-02-28T03:38:48.272Z,6.60
2019-02-28T03:40:50.790Z,6.50
2019-02-28T03:42:56.183Z,6.50
2019-02-28T03:45:00.876Z,6.40
2019-02-28T03:47:05.524Z,6.40
2019-02-28T03:49:12.513Z,6.30
2019-02-28T03:51:18.162Z,6.30
2019-02-28T03:53:23.418Z,6.30
2019-02-28T03:55:29.140Z,6.30
2019-02-28T03:57:36.350Z,6.30
2019-02-28T03:59:41.915Z,6.30
2019-02-28T04:01:47.183Z,6.30
2019-02-28T04:03:51.871Z,6.30
2019-02-28T04:06:03.019Z,6.30
2019-02-28T04:08:03.206Z,6.30
2019-02-28T04:10:09.022Z,6.30
2019-02-28T04:12:20.642Z,6.20
2019-02-28T04:14:28.487Z,6.30
2019-02-28T04:16:37.156Z,6.30
2019-02-28T04:18:46.212Z,6.20
2019-02-28T04:20:48.954Z,6.20
2019-02-28T04:22:58.883Z,6.20
2019-02-28T04:25:01.313Z,6.20
2019-02-28T04:27:07.029Z,6.20
2019-02-28T04:29:14.741Z,6.20
2019-02-28T04:31:20.393Z,6.30
2019-02-28T04:33:25.673Z,6.30
2019-02-28T04:35:30.475Z,6.30
2019-02-28T04:37:35.109Z,6.30
2019-02-28T04:39:40.503Z,6.30
2019-02-28T04:41:45.126Z,6.30
2019-02-28T04:43:51.118Z,6.20
2019-02-28T04:45:58.780Z,6.20
2019-02-28T04:48:04.037Z,6.30
2019-02-28T04:50:10.993Z,6.30
2019-02-28T04:52:18.426Z,6.30
2019-02-28T04:54:24.606Z,6.30
2019-02-28T04:56:31.432Z,6.30
2019-02-28T04:58:38.405Z,6.30
2019-02-28T05:00:43.533Z,6.30
2019-02-28T05:02:53.738Z,6.40
2019-02-28T05:04:56.856Z,6.40
2019-02-28T05:07:01.377Z,6.40
2019-02-28T05:09:10.734Z,6.30
2019-02-28T05:11:16.090Z,6.30
2019-02-28T05:13:21.241Z,6.40
2019-02-28T05:15:26.508Z,6.30
2019-02-28T05:17:31.191Z,6.30
2019-02-28T05:19:36.558Z,6.30
2019-02-28T05:21:41.171Z,6.30
2019-02-28T05:23:46.511Z,6.50
2019-02-28T05:25:52.140Z,6.60
2019-02-28T05:27:57.383Z,6.70
2019-02-28T05:30:07.387Z,6.80
2019-02-28T05:32:16.928Z,6.80
2019-02-28T05:34:22.107Z,6.80
2019-02-28T05:36:27.589Z,6.90
2019-02-28T05:38:33.265Z,6.80
2019-02-28T05:40:41.417Z,6.90
2019-02-28T05:42:47.536Z,6.80
2019-02-28T05:44:55.217Z,6.80
2019-02-28T05:47:00.425Z,6.80
2019-02-28T05:49:08.698Z,6.70
2019-02-28T05:51:14.613Z,6.70
2019-02-28T05:53:20.503Z,6.60
2019-02-28T05:55:25.920Z,6.50
2019-02-28T05:57:30.609Z,6.40
2019-02-28T05:59:36.601Z,6.30
2019-02-28T06:01:43.479Z,6.30
2019-02-28T06:03:50.444Z,6.30
2019-02-28T06:05:56.019Z,6.30
2019-02-28T06:08:03.513Z,6.30
2019-02-28T06:10:10.525Z,6.30
2019-02-28T06:12:16.577Z,6.20
2019-02-28T06:14:26.704Z,6.20
2019-02-28T06:16:28.925Z,6.30
2019-02-28T06:18:34.338Z,6.20
2019-02-28T06:20:40.968Z,6.20
2019-02-28T06:22:47.727Z,6.20
2019-02-28T06:24:52.352Z,6.10
2019-02-28T06:26:57.796Z,6.10
2019-02-28T06:29:04.974Z,6.00
2019-02-28T06:31:08.899Z,6.00
2019-02-28T06:33:15.438Z,6.00
2019-02-28T06:35:20.584Z,6.00
2019-02-28T06:37:26.916Z,6.00
2019-02-28T06:39:33.720Z,6.10
2019-02-28T06:41:40.730Z,6.10
2019-02-28T06:43:45.523Z,6.10
2019-02-28T06:45:50.081Z,6.10
2019-02-28T06:47:54.640Z,6.10
2019-02-28T06:50:02.482Z,6.20
2019-02-28T06:52:07.269Z,6.30
2019-02-28T06:54:15.290Z,6.30
2019-02-28T06:56:24.327Z,6.30
2019-02-28T06:58:33.267Z,6.30
2019-02-28T07:00:44.189Z,6.30
2019-02-28T07:02:50.129Z,6.30
2019-02-28T07:04:54.880Z,6.30
2019-02-28T07:06:59.999Z,6.30
2019-02-28T07:09:06.422Z,6.40
2019-02-28T07:11:14.912Z,6.40
2019-02-28T07:13:22.698Z,6.40
2019-02-28T07:15:30.884Z,6.40
2019-02-28T07:17:35.916Z,6.40
2019-02-28T07:19:41.173Z,6.40
2019-02-28T07:21:56.995Z,6.40
2019-02-28T07:24:12.324Z,6.40
2019-02-28T07:26:19.647Z,6.30
2019-02-28T07:28:27.301Z,6.30
2019-02-28T07:30:44.767Z,6.40
2019-02-28T07:32:50.307Z,6.40
2019-02-28T07:34:58.081Z,6.40
2019-02-28T07:37:02.328Z,6.50
2019-02-28T07:39:07.635Z,6.50
2019-02-28T07:41:13.382Z,6.60
2019-02-28T07:43:19.674Z,6.70
2019-02-28T07:45:25.011Z,6.70
2019-02-28T07:47:29.918Z,6.80
2019-02-28T07:49:36.832Z,6.90
2019-02-28T07:51:47.009Z,7.00
2019-02-28T07:53:52.007Z,7.00
2019-02-28T07:55:57.867Z,7.10
2019-02-28T07:58:02.553Z,7.20
2019-02-28T08:00:17.161Z,7.20
2019-02-28T08:02:18.638Z,7.30
2019-02-28T08:04:23.663Z,7.40
2019-02-28T08:06:28.989Z,7.50
2019-02-28T08:08:33.837Z,7.50
2019-02-28T08:10:38.646Z,7.50
2019-02-28T08:12:43.216Z,7.60
2019-02-28T08:14:47.922Z,7.60
2019-02-28T08:16:52.470Z,7.70
2019-02-28T08:18:57.074Z,7.80
2019-02-28T08:21:01.709Z,7.90
2019-02-28T08:23:06.710Z,8.00
2019-02-28T08:25:13.189Z,8.10
2019-02-28T08:27:18.082Z,8.10
2019-02-28T08:29:22.739Z,8.20
2019-02-28T08:31:28.401Z,8.30
2019-02-28T08:33:33.932Z,8.40
2019-02-28T08:35:38.869Z,8.50
2019-02-28T08:37:44.530Z,8.60
2019-02-28T08:39:49.138Z,8.70
2019-02-28T08:41:53.808Z,8.70
2019-02-28T08:43:58.707Z,8.70
2019-02-28T08:46:09.594Z,8.80
2019-02-28T08:48:10.321Z,8.90
2019-02-28T08:50:20.581Z,8.90
2019-02-28T08:52:24.507Z,9.00
2019-02-28T08:54:28.976Z,9.10
2019-02-28T08:56:33.668Z,9.20
2019-02-28T08:58:42.715Z,9.20
2019-02-28T09:00:47.436Z,9.30
2019-02-28T09:02:54.831Z,9.40
2019-02-28T09:04:59.247Z,9.50
2019-02-28T09:07:04.203Z,9.50
2019-02-28T09:09:10.673Z,9.60
2019-02-28T09:11:20.652Z,9.70
2019-02-28T09:13:22.517Z,9.80
2019-02-28T09:15:31.143Z,9.80
2019-02-28T09:17:34.511Z,9.90
2019-02-28T09:19:39.377Z,10.00
2019-02-28T09:21:45.838Z,10.10
2019-02-28T09:23:50.844Z,10.10
2019-02-28T09:25:56.607Z,10.20
2019-02-28T09:28:03.970Z,10.30
2019-02-28T09:30:13.796Z,10.40
2019-02-28T09:32:19.861Z,10.50
2019-02-28T09:34:25.014Z,10.60
2019-02-28T09:36:30.070Z,10.70
2019-02-28T09:38:35.619Z,10.90
2019-02-28T09:40:41.290Z,10.90
2019-02-28T09:42:47.941Z,11.00
2019-02-28T09:44:52.775Z,11.00
2019-02-28T09:46:57.850Z,11.00
2019-02-28T09:49:02.670Z,11.10
2019-02-28T09:51:07.598Z,11.10
2019-02-28T09:53:16.528Z,11.20
2019-02-28T09:55:19.422Z,11.30
2019-02-28T09:57:24.419Z,11.30
2019-02-28T09:59:37.295Z,11.30
2019-02-28T10:01:37.959Z,11.30
2019-02-28T10:03:43.557Z,11.40
2019-02-28T10:05:48.861Z,11.50
2019-02-28T10:07:53.845Z,11.50
2019-02-28T10:09:59.123Z,11.70
2019-02-28T10:12:07.805Z,11.80
2019-02-28T10:14:13.399Z,11.90
2019-02-28T10:16:18.626Z,12.10
2019-02-28T10:18:23.606Z,12.20
2019-02-28T10:20:29.255Z,12.20
2019-02-28T10:22:34.127Z,12.40
2019-02-28T10:24:39.141Z,12.50
2019-02-28T10:26:43.782Z,12.60
2019-02-28T10:28:48.332Z,12.60
2019-02-28T10:30:54.585Z,12.70
2019-02-28T10:32:59.856Z,12.80
2019-02-28T10:35:04.562Z,12.90
2019-02-28T10:37:09.511Z,13.00
2019-02-28T10:39:14.413Z,13.10
2019-02-28T10:41:20.581Z,13.30
2019-02-28T10:43:25.715Z,13.50
2019-02-28T10:45:30.563Z,13.40
2019-02-28T10:47:35.775Z,13.40
2019-02-28T10:49:40.403Z,13.40
2019-02-28T10:51:49.538Z,13.50
2019-02-28T10:53:51.282Z,13.40
2019-02-28T10:55:57.930Z,13.30
2019-02-28T10:58:03.169Z,13.40
2019-02-28T11:00:12.351Z,13.30
2019-02-28T11:02:19.954Z,13.40
2019-02-28T11:04:27.588Z,13.50
2019-02-28T11:06:38.171Z,13.70
2019-02-28T11:08:44.424Z,13.70
2019-02-28T11:10:50.480Z,13.70
2019-02-28T11:12:57.116Z,13.50
2019-02-28T11:15:02.407Z,13.70
2019-02-28T11:17:13.481Z,13.70
2019-02-28T11:19:18.682Z,13.50
2019-02-28T11:21:20.670Z,13.50
2019-02-28T11:23:31.529Z,13.40
2019-02-28T11:25:36.783Z,13.60
2019-02-28T11:27:45.661Z,13.60
2019-02-28T11:29:50.880Z,13.70
2019-02-28T11:31:56.009Z,13.50
2019-02-28T11:34:01.131Z,13.70
2019-02-28T11:36:07.540Z,13.70
2019-02-28T11:38:13.192Z,13.70
2019-02-28T11:40:19.737Z,13.80
2019-02-28T11:42:27.787Z,13.80
2019-02-28T11:44:32.506Z,13.90
2019-02-28T11:46:38.851Z,14.00
2019-02-28T11:48:43.755Z,13.80
2019-02-28T11:50:49.700Z,13.80
2019-02-28T11:52:54.723Z,13.80
2019-02-28T11:54:59.267Z,13.70
2019-02-28T11:57:06.695Z,13.70
2019-02-28T11:59:10.873Z,13.90
2019-02-28T12:01:16.436Z,13.80
2019-02-28T12:03:21.543Z,13.90
2019-02-28T12:05:28.418Z,13.80
2019-02-28T12:07:35.012Z,13.90
2019-02-28T12:09:40.294Z,13.90
2019-02-28T12:11:46.004Z,13.90
2019-02-28T12:13:55.179Z,13.80
2019-02-28T12:15:59.018Z,13.80
2019-02-28T12:18:05.438Z,13.90
2019-02-28T12:20:12.790Z,14.10
2019-02-28T12:22:23.166Z,14.10
2019-02-28T12:24:29.351Z,14.20
2019-02-28T12:26:38.250Z,14.10
2019-02-28T12:28:44.050Z,14.20
2019-02-28T12:30:48.787Z,14.00
2019-02-28T12:32:53.471Z,14.10
2019-02-28T12:35:01.290Z,14.10
2019-02-28T12:37:06.115Z,14.30
2019-02-28T12:39:11.080Z,14.20
2019-02-28T12:41:15.868Z,14.20
2019-02-28T12:43:21.262Z,14.30
2019-02-28T12:45:28.831Z,14.40
2019-02-28T12:47:35.300Z,14.50
2019-02-28T12:49:40.391Z,14.70
2019-02-28T12:51:45.700Z,14.70
2019-02-28T12:53:56.193Z,14.60
2019-02-28T12:56:00.951Z,14.60
2019-02-28T12:58:06.638Z,14.60
2019-02-28T13:00:19.939Z,14.70
2019-02-28T13:02:25.935Z,14.80
2019-02-28T13:04:32.605Z,14.60
2019-02-28T13:06:39.874Z,14.50
2019-02-28T13:08:45.420Z,14.60
2019-02-28T13:10:50.559Z,14.50
2019-02-28T13:13:06.273Z,14.50
2019-02-28T13:15:13.021Z,14.60
2019-02-28T13:17:16.204Z,14.50
2019-02-28T13:19:21.345Z,14.40
2019-02-28T13:21:25.855Z,14.30
2019-02-28T13:23:32.830Z,14.30
2019-02-28T13:25:36.880Z,14.10
2019-02-28T13:27:45.209Z,13.90
2019-02-28T13:29:53.154Z,13.80
2019-02-28T13:31:57.741Z,13.70
2019-02-28T13:34:03.124Z,13.70
2019-02-28T13:36:08.381Z,13.50
2019-02-28T13:38:17.476Z,13.50
2019-02-28T13:40:19.361Z,13.40
2019-02-28T13:42:24.241Z,13.40
2019-02-28T13:44:31.604Z,13.40
2019-02-28T13:46:35.865Z,13.30
2019-02-28T13:48:40.417Z,13.30
2019-02-28T13:50:46.162Z,13.20
2019-02-28T13:52:52.680Z,12.90
2019-02-28T13:54:57.545Z,12.90
2019-02-28T13:57:08.209Z,12.80
2019-02-28T13:59:08.239Z,12.90
2019-02-28T14:01:13.046Z,12.70
2019-02-28T14:03:20.013Z,12.60
2019-02-28T14:05:25.237Z,12.60
2019-02-28T14:07:33.694Z,12.40
2019-02-28T14:09:38.002Z,12.40
2019-02-28T14:11:51.811Z,12.20
2019-02-28T14:13:57.823Z,12.20
2019-02-28T14:16:02.501Z,12.10
2019-02-28T14:18:10.784Z,12.10
2019-02-28T14:20:14.996Z,12.10
2019-02-28T14:22:19.534Z,12.10
2019-02-28T14:24:27.510Z,12.10
2019-02-28T14:26:32.453Z,12.10
2019-02-28T14:28:37.897Z,12.10
2019-02-28T14:30:42.659Z,12.10
2019-02-28T14:32:47.501Z,12.10
2019-02-28T14:34:53.893Z,12.30
2019-02-28T14:36:59.282Z,12.30
2019-02-28T14:39:08.322Z,12.30
2019-02-28T14:41:12.604Z,12.40
2019-02-28T14:43:19.550Z,12.50
2019-02-28T14:45:23.957Z,12.50
2019-02-28T14:47:29.613Z,12.70
2019-02-28T14:49:34.532Z,12.60
2019-02-28T14:51:39.090Z,12.50
2019-02-28T14:53:49.889Z,12.50
2019-02-28T14:55:50.723Z,12.60
2019-02-28T14:57:55.632Z,12.60
2019-02-28T15:00:13.570Z,12.70
2019-02-28T15:02:18.597Z,12.70
2019-02-28T15:04:23.660Z,12.80
2019-02-28T15:06:29.536Z,12.80
2019-02-28T15:08:36.317Z,12.90
2019-02-28T15:10:42.243Z,13.00
2019-02-28T15:12:47.441Z,12.90
2019-02-28T15:14:53.756Z,12.90
2019-02-28T15:17:01.530Z,12.80
2019-02-28T15:19:05.833Z,12.90
2019-02-28T15:21:11.332Z,12.80
2019-02-28T15:23:16.266Z,12.70
2019-02-28T15:25:21.547Z,12.70
2019-02-28T15:27:30.075Z,12.80
2019-02-28T15:29:35.019Z,12.80
2019-02-28T15:31:40.479Z,12.80
2019-02-28T15:33:46.250Z,12.90
2019-02-28T15:35:51.086Z,12.90
2019-02-28T15:38:05.751Z,12.90
2019-02-28T15:40:16.368Z,13.10
2019-02-28T15:42:21.692Z,13.10
2019-02-28T15:44:29.348Z,13.00
2019-02-28T15:46:34.008Z,12.90
2019-02-28T15:48:40.537Z,13.00
2019-02-28T15:50:51.200Z,13.00
2019-02-28T15:52:55.168Z,13.00
2019-02-28T15:55:02.008Z,13.00
2019-02-28T15:57:17.625Z,12.90
2019-02-28T15:59:22.617Z,13.00
2019-02-28T16:01:32.190Z,12.90
2019-02-28T16:03:41.316Z,12.90
2019-02-28T16:05:56.309Z,12.90
2019-02-28T16:08:09.048Z,12.80
2019-02-28T16:10:19.677Z,12.80
2019-02-28T16:12:24.689Z,12.70
2019-02-28T16:14:31.541Z,12.70
2019-02-28T16:16:37.144Z,12.60
2019-02-28T16:18:47.287Z,12.50
2019-02-28T16:21:03.655Z,12.50
2019-02-28T16:23:11.742Z,12.40
2019-02-28T16:25:19.576Z,12.50
2019-02-28T16:27:24.569Z,12.50
2019-02-28T16:29:42.941Z,12.50
2019-02-28T16:31:51.240Z,12.70
2019-02-28T16:34:08.006Z,12.60
2019-02-28T16:36:07.396Z,12.70
2019-02-28T16:38:13.419Z,12.70
2019-02-28T16:40:26.164Z,12.60
2019-02-28T16:42:31.444Z,12.60
2019-02-28T16:44:38.277Z,12.50
2019-02-28T16:46:46.504Z,12.40
2019-02-28T16:48:54.033Z,12.50
2019-02-28T16:51:03.495Z,12.50
2019-02-28T16:53:15.040Z,12.50
2019-02-28T16:55:16.955Z,12.50
2019-02-28T16:57:25.888Z,12.50
2019-02-28T16:59:39.996Z,12.50
2019-02-28T17:01:46.053Z,12.40
2019-02-28T17:03:52.481Z,12.30
2019-02-28T17:06:01.597Z,12.40
2019-02-28T17:08:06.829Z,12.40
2019-02-28T17:10:40.177Z,12.40
2019-02-28T17:13:12.228Z,12.40
2019-02-28T17:15:24.748Z,12.30
2019-02-28T17:17:47.047Z,12.30
2019-02-28T17:20:03.067Z,12.30
2019-02-28T17:22:16.548Z,12.40
2019-02-28T17:24:23.633Z,12.40
2019-02-28T17:26:48.160Z,12.30
2019-02-28T17:29:05.083Z,12.30
2019-02-28T17:31:28.838Z,12.30
2019-02-28T17:33:33.970Z,12.30
2019-02-28T17:35:41.645Z,12.40
2019-02-28T17:37:46.715Z,12.40
2019-02-28T17:39:52.212Z,12.30
2019-02-28T17:42:06.021Z,12.30
2019-02-28T17:44:39.331Z,12.20
2019-02-28T17:46:46.514Z,12.40
2019-02-28T17:49:15.446Z,12.30
2019-02-28T17:51:41.898Z,12.30
2019-02-28T17:54:27.627Z,12.30
2019-02-28T17:57:10.291Z,12.10
2019-02-28T17:59:49.930Z,12.10
2019-02-28T18:02:05.172Z,12.00
2019-02-28T18:05:07.335Z,12.00
2019-02-28T18:08:04.426Z,11.90
2019-02-28T18:11:00.221Z,11.90
2019-02-28T18:13:38.380Z,11.90
2019-02-28T18:16:25.542Z,11.80
2019-02-28T18:19:05.685Z,11.80
2019-02-28T18:21:51.063Z,11.80
2019-02-28T18:24:41.147Z,11.80
2019-02-28T18:27:21.869Z,11.70
2019-02-28T18:30:09.107Z,11.70
2019-02-28T18:32:12.494Z,11.60
2019-02-28T18:34:21.424Z,11.50
2019-02-28T18:36:29.415Z,11.50
2019-02-28T18:38:36.474Z,11.50
2019-02-28T18:40:41.931Z,11.40
2019-02-28T18:42:51.423Z,11.40
2019-02-28T18:44:54.384Z,11.40
2019-02-28T18:47:02.994Z,11.40
2019-02-28T18:49:06.169Z,11.40
2019-02-28T18:51:10.770Z,11.40
2019-02-28T18:53:16.946Z,11.40
2019-02-28T18:55:22.263Z,11.40
2019-02-28T18:57:27.639Z,11.50
2019-02-28T18:59:32.516Z,11.50
2019-02-28T19:01:38.637Z,11.40
2019-02-28T19:03:43.501Z,11.40
2019-02-28T19:05:50.578Z,11.50
2019-02-28T19:07:57.575Z,11.50
2019-02-28T19:10:04.562Z,11.50
2019-02-28T19:12:25.356Z,11.50
2019-02-28T19:14:32.309Z,11.50
2019-02-28T19:16:36.948Z,11.50
2019-02-28T19:18:44.631Z,11.50
2019-02-28T19:23:23.821Z,11.50
2019-02-28T19:25:29.319Z,11.40
2019-02-28T19:27:34.118Z,11.30
2019-02-28T19:29:39.091Z,11.20
2019-02-28T19:31:43.760Z,11.20
2019-02-28T19:33:59.900Z,11.10
2019-02-28T19:36:38.773Z,11.10
2019-02-28T19:38:51.089Z,11.00
2019-02-28T19:41:48.302Z,11.00
2019-02-28T19:43:53.552Z,11.00
2019-02-28T19:46:03.242Z,11.00
2019-02-28T19:48:40.695Z,10.90
2019-02-28T19:50:55.123Z,10.90
2019-02-28T19:53:00.155Z,10.90
2019-02-28T19:55:06.071Z,10.90
2019-02-28T19:57:11.874Z,11.00
2019-02-28T19:59:29.197Z,11.00
2019-02-28T20:01:36.205Z,11.00
2019-02-28T20:06:59.462Z,11.00
2019-02-28T20:09:06.443Z,11.00
2019-02-28T20:11:12.322Z,11.00
2019-02-28T20:13:17.443Z,11.00
2019-02-28T20:15:27.969Z,11.00
2019-02-28T20:17:33.128Z,11.00
2019-02-28T20:19:38.761Z,11.00
2019-02-28T20:21:46.602Z,11.00
2019-02-28T20:23:55.970Z,11.00
2019-02-28T20:26:02.958Z,11.00
2019-02-28T20:28:09.228Z,11.00
2019-02-28T20:30:22.221Z,11.00
2019-02-28T20:32:34.253Z,11.00
2019-02-28T20:34:49.482Z,11.00
2019-02-28T20:36:55.245Z,11.00
2019-02-28T20:39:01.015Z,11.10
2019-02-28T20:41:06.059Z,11.10
2019-02-28T20:45:47.087Z,11.00
2019-02-28T20:51:25.701Z,10.90
2019-02-28T20:53:39.022Z,10.80
2019-02-28T20:56:07.002Z,10.70
2019-02-28T20:58:26.029Z,10.70
2019-02-28T21:00:30.484Z,10.60
2019-02-28T21:02:35.503Z,10.60
2019-02-28T21:04:42.975Z,10.60
2019-02-28T21:06:51.827Z,10.60
2019-02-28T21:09:05.621Z,10.50
2019-02-28T21:11:12.415Z,10.60
2019-02-28T21:13:20.336Z,10.50
2019-02-28T21:15:26.235Z,10.50
2019-02-28T21:17:32.032Z,10.50
2019-02-28T21:19:38.445Z,10.50
2019-02-28T21:21:50.867Z,10.50
2019-02-28T21:24:04.309Z,10.50
2019-02-28T21:26:19.874Z,10.50
2019-02-28T21:28:32.120Z,10.50
2019-02-28T21:33:18.014Z,10.50
2019-02-28T21:35:28.165Z,10.50
2019-02-28T21:37:38.777Z,10.50
2019-02-28T21:39:50.703Z,10.50
2019-02-28T21:42:01.175Z,10.50
2019-02-28T21:44:19.474Z,10.50
2019-02-28T21:46:29.476Z,10.50
2019-02-28T21:48:53.012Z,10.50
2019-02-28T21:51:14.921Z,10.50
2019-02-28T21:53:25.922Z,10.50
2019-02-28T21:55:36.655Z,10.40
2019-02-28T21:57:54.800Z,10.40
2019-02-28T22:00:07.409Z,10.40
2019-02-28T22:02:34.496Z,10.40
2019-02-28T22:04:43.307Z,10.40
2019-02-28T22:06:53.827Z,10.40
2019-02-28T22:09:03.475Z,10.40
2019-02-28T22:11:13.486Z,10.40
2019-02-28T22:13:20.538Z,10.40
2019-02-28T22:15:28.128Z,10.40
2019-02-28T22:17:34.711Z,10.40
2019-02-28T22:19:43.291Z,10.40
2019-02-28T22:21:51.843Z,10.40
2019-02-28T22:24:01.500Z,10.40
2019-02-28T22:28:53.898Z,10.40
2019-02-28T22:31:23.611Z,10.40
2019-02-28T22:34:00.443Z,10.40
2019-02-28T22:36:12.016Z,10.40
2019-02-28T22:38:17.292Z,10.40
2019-02-28T22:40:23.674Z,10.40
2019-02-28T22:42:28.718Z,10.40
2019-02-28T22:44:39.375Z,10.40
2019-02-28T22:47:09.553Z,10.40
2019-02-28T22:49:16.762Z,10.40
2019-02-28T22:51:28.519Z,10.40
2019-02-28T22:53:43.281Z,10.40
2019-02-28T22:56:09.167Z,10.40
2019-02-28T22:58:22.932Z,10.40
2019-02-28T23:00:41.116Z,10.30
2019-02-28T23:02:46.199Z,10.40
2019-02-28T23:04:50.877Z,10.40
2019-02-28T23:06:55.856Z,10.40
2019-02-28T23:09:01.383Z,10.40
2019-02-28T23:11:10.332Z,10.40
2019-02-28T23:13:24.339Z,10.40
2019-02-28T23:15:30.412Z,10.40
2019-02-28T23:17:42.067Z,10.40
2019-02-28T23:19:49.110Z,10.50
2019-02-28T23:21:54.463Z,10.40
2019-02-28T23:23:59.561Z,10.40
2019-02-28T23:26:12.883Z,10.40
2019-02-28T23:28:31.131Z,10.50
2019-02-28T23:31:02.837Z,10.40
2019-02-28T23:33:17.253Z,10.30
2019-02-28T23:35:26.924Z,10.20
2019-02-28T23:37:31.843Z,10.20
2019-02-28T23:39:36.475Z,10.20
2019-02-28T23:41:41.144Z,10.20
2019-02-28T23:43:45.770Z,10.20
2019-02-28T23:45:52.881Z,10.20
2019-02-28T23:47:58.453Z,10.20
2019-02-28T23:50:03.319Z,10.20
2019-02-28T23:52:12.191Z,10.10
2019-02-28T23:54:16.840Z,10.10
2019-02-28T23:56:21.893Z,10.10
2019-02-28T23:58:26.658Z,10.10
